sensor_id;sensor_type;location;lat;lon;timestamp;P1;durP1;ratioP1;P2;durP2;ratioP2
73814;SDS011;62145;55.648;37.602;2023-12-20T00:01:49;6.63;;;2.17;;
73814;SDS011;62145;55.648;37.602;2023-12-20T00:04:15;6.40;;;2.22;;
73814;SDS011;62145;55.648;37.602;2023-12-20T00:06:43;5.95;;;2.00;;
73814;SDS011;62145;55.648;37.602;2023-12-20T00:09:09;5.30;;;1.23;;
73814;SDS011;62145;55.648;37.602;2023-12-20T00:11:35;5.97;;;2.22;;
73814;SDS011;62145;55.648;37.602;2023-12-20T00:14:03;7.65;;;2.35;;
73814;SDS011;62145;55.648;37.602;2023-12-20T00:16:30;6.00;;;2.30;;
73814;SDS011;62145;55.648;37.602;2023-12-20T00:18:57;6.78;;;1.98;;
73814;SDS011;62145;55.648;37.602;2023-12-20T00:21:23;8.48;;;2.70;;
73814;SDS011;62145;55.648;37.602;2023-12-20T00:23:49;7.00;;;2.30;;
73814;SDS011;62145;55.648;37.602;2023-12-20T00:26:15;6.90;;;2.80;;
73814;SDS011;62145;55.648;37.602;2023-12-20T00:28:41;5.93;;;2.33;;
73814;SDS011;62145;55.648;37.602;2023-12-20T00:31:08;6.03;;;2.30;;
73814;SDS011;62145;55.648;37.602;2023-12-20T00:33:34;8.25;;;2.38;;
73814;SDS011;62145;55.648;37.602;2023-12-20T00:36:00;6.87;;;2.63;;
73814;SDS011;62145;55.648;37.602;2023-12-20T00:38:26;6.00;;;2.40;;
73814;SDS011;62145;55.648;37.602;2023-12-20T00:40:52;5.30;;;1.92;;
73814;SDS011;62145;55.648;37.602;2023-12-20T00:43:19;5.30;;;2.00;;
73814;SDS011;62145;55.648;37.602;2023-12-20T00:45:45;5.50;;;2.17;;
73814;SDS011;62145;55.648;37.602;2023-12-20T00:48:10;7.35;;;2.17;;
73814;SDS011;62145;55.648;37.602;2023-12-20T00:50:37;6.10;;;2.30;;
73814;SDS011;62145;55.648;37.602;2023-12-20T00:53:03;6.95;;;1.92;;
73814;SDS011;62145;55.648;37.602;2023-12-20T00:55:29;5.87;;;2.33;;
73814;SDS011;62145;55.648;37.602;2023-12-20T00:57:55;6.25;;;2.42;;
73814;SDS011;62145;55.648;37.602;2023-12-20T01:00:21;7.32;;;2.20;;
73814;SDS011;62145;55.648;37.602;2023-12-20T01:02:47;6.68;;;2.25;;
73814;SDS011;62145;55.648;37.602;2023-12-20T01:05:15;7.38;;;2.20;;
73814;SDS011;62145;55.648;37.602;2023-12-20T01:07:41;7.03;;;2.50;;
73814;SDS011;62145;55.648;37.602;2023-12-20T01:10:07;6.15;;;2.35;;
73814;SDS011;62145;55.648;37.602;2023-12-20T01:12:33;5.45;;;1.85;;
73814;SDS011;62145;55.648;37.602;2023-12-20T01:14:59;7.67;;;2.60;;
73814;SDS011;62145;55.648;37.602;2023-12-20T01:17:25;8.38;;;2.70;;
73814;SDS011;62145;55.648;37.602;2023-12-20T01:19:51;7.10;;;2.38;;
73814;SDS011;62145;55.648;37.602;2023-12-20T01:22:17;6.50;;;2.50;;
73814;SDS011;62145;55.648;37.602;2023-12-20T01:24:43;7.77;;;2.70;;
73814;SDS011;62145;55.648;37.602;2023-12-20T01:27:09;6.13;;;2.50;;
73814;SDS011;62145;55.648;37.602;2023-12-20T01:29:35;7.45;;;2.60;;
73814;SDS011;62145;55.648;37.602;2023-12-20T01:32:00;7.63;;;2.27;;
73814;SDS011;62145;55.648;37.602;2023-12-20T01:34:26;7.45;;;2.42;;
73814;SDS011;62145;55.648;37.602;2023-12-20T01:36:52;8.05;;;2.33;;
73814;SDS011;62145;55.648;37.602;2023-12-20T01:39:22;6.10;;;1.90;;
73814;SDS011;62145;55.648;37.602;2023-12-20T01:41:50;7.93;;;2.85;;
73814;SDS011;62145;55.648;37.602;2023-12-20T01:47:34;6.07;;;2.10;;
73814;SDS011;62145;55.648;37.602;2023-12-20T01:50:07;7.43;;;2.30;;
73814;SDS011;62145;55.648;37.602;2023-12-20T01:52:36;5.07;;;1.70;;
73814;SDS011;62145;55.648;37.602;2023-12-20T01:55:02;4.88;;;1.80;;
73814;SDS011;62145;55.648;37.602;2023-12-20T01:57:30;6.05;;;1.77;;
73814;SDS011;62145;55.648;37.602;2023-12-20T01:59:56;5.53;;;1.73;;
73814;SDS011;62145;55.648;37.602;2023-12-20T02:02:22;6.78;;;1.63;;
73814;SDS011;62145;55.648;37.602;2023-12-20T02:04:48;6.03;;;1.40;;
73814;SDS011;62145;55.648;37.602;2023-12-20T02:07:16;5.97;;;1.60;;
73814;SDS011;62145;55.648;37.602;2023-12-20T02:09:42;4.20;;;1.30;;
73814;SDS011;62145;55.648;37.602;2023-12-20T02:12:08;5.22;;;1.40;;
73814;SDS011;62145;55.648;37.602;2023-12-20T02:14:34;4.00;;;1.07;;
73814;SDS011;62145;55.648;37.602;2023-12-20T02:17:00;5.68;;;1.10;;
73814;SDS011;62145;55.648;37.602;2023-12-20T02:19:26;10.88;;;1.38;;
73814;SDS011;62145;55.648;37.602;2023-12-20T02:22:04;4.07;;;1.17;;
73814;SDS011;62145;55.648;37.602;2023-12-20T02:24:32;5.45;;;1.20;;
73814;SDS011;62145;55.648;37.602;2023-12-20T02:26:57;3.80;;;1.08;;
73814;SDS011;62145;55.648;37.602;2023-12-20T02:29:24;4.05;;;1.00;;
73814;SDS011;62145;55.648;37.602;2023-12-20T02:31:50;4.55;;;1.00;;
73814;SDS011;62145;55.648;37.602;2023-12-20T02:34:15;3.73;;;1.10;;
73814;SDS011;62145;55.648;37.602;2023-12-20T02:36:41;3.67;;;1.10;;
73814;SDS011;62145;55.648;37.602;2023-12-20T02:39:07;3.90;;;1.10;;
73814;SDS011;62145;55.648;37.602;2023-12-20T02:41:33;3.75;;;1.20;;
73814;SDS011;62145;55.648;37.602;2023-12-20T02:44:01;5.32;;;1.30;;
73814;SDS011;62145;55.648;37.602;2023-12-20T02:46:27;4.07;;;1.38;;
73814;SDS011;62145;55.648;37.602;2023-12-20T02:48:53;4.43;;;1.27;;
73814;SDS011;62145;55.648;37.602;2023-12-20T02:51:18;4.68;;;1.80;;
73814;SDS011;62145;55.648;37.602;2023-12-20T02:53:44;4.82;;;1.33;;
73814;SDS011;62145;55.648;37.602;2023-12-20T02:56:10;5.23;;;1.73;;
73814;SDS011;62145;55.648;37.602;2023-12-20T02:58:36;6.75;;;2.10;;
73814;SDS011;62145;55.648;37.602;2023-12-20T03:01:02;5.72;;;1.42;;
73814;SDS011;62145;55.648;37.602;2023-12-20T03:03:28;6.40;;;2.03;;
73814;SDS011;62145;55.648;37.602;2023-12-20T03:05:55;6.55;;;2.30;;
73814;SDS011;62145;55.648;37.602;2023-12-20T03:08:21;6.75;;;2.20;;
73814;SDS011;62145;55.648;37.602;2023-12-20T03:10:47;6.38;;;2.03;;
73814;SDS011;62145;55.648;37.602;2023-12-20T03:13:13;5.65;;;1.98;;
73814;SDS011;62145;55.648;37.602;2023-12-20T03:15:39;5.47;;;1.70;;
73814;SDS011;62145;55.648;37.602;2023-12-20T03:18:04;7.15;;;2.50;;
73814;SDS011;62145;55.648;37.602;2023-12-20T03:20:30;5.97;;;2.08;;
73814;SDS011;62145;55.648;37.602;2023-12-20T03:22:59;5.83;;;2.20;;
73814;SDS011;62145;55.648;37.602;2023-12-20T03:25:25;9.13;;;2.53;;
73814;SDS011;62145;55.648;37.602;2023-12-20T03:27:52;6.53;;;2.13;;
73814;SDS011;62145;55.648;37.602;2023-12-20T03:30:18;7.28;;;2.30;;
73814;SDS011;62145;55.648;37.602;2023-12-20T03:32:45;7.88;;;1.95;;
73814;SDS011;62145;55.648;37.602;2023-12-20T03:35:11;5.53;;;1.83;;
73814;SDS011;62145;55.648;37.602;2023-12-20T03:37:36;6.15;;;2.20;;
73814;SDS011;62145;55.648;37.602;2023-12-20T03:40:02;6.72;;;2.30;;
73814;SDS011;62145;55.648;37.602;2023-12-20T03:42:29;6.13;;;2.40;;
73814;SDS011;62145;55.648;37.602;2023-12-20T03:44:55;7.70;;;2.87;;
73814;SDS011;62145;55.648;37.602;2023-12-20T03:47:20;7.43;;;2.80;;
73814;SDS011;62145;55.648;37.602;2023-12-20T03:49:47;8.00;;;2.70;;
73814;SDS011;62145;55.648;37.602;2023-12-20T03:52:12;7.13;;;2.90;;
73814;SDS011;62145;55.648;37.602;2023-12-20T03:54:38;8.60;;;2.97;;
73814;SDS011;62145;55.648;37.602;2023-12-20T03:57:05;9.50;;;3.08;;
73814;SDS011;62145;55.648;37.602;2023-12-20T03:59:34;11.07;;;3.13;;
73814;SDS011;62145;55.648;37.602;2023-12-20T04:02:01;8.77;;;3.60;;
73814;SDS011;62145;55.648;37.602;2023-12-20T04:04:27;8.53;;;2.80;;
73814;SDS011;62145;55.648;37.602;2023-12-20T04:06:53;9.63;;;3.08;;
73814;SDS011;62145;55.648;37.602;2023-12-20T04:09:19;7.13;;;3.13;;
73814;SDS011;62145;55.648;37.602;2023-12-20T04:11:45;9.73;;;3.90;;
73814;SDS011;62145;55.648;37.602;2023-12-20T04:14:11;6.57;;;2.30;;
73814;SDS011;62145;55.648;37.602;2023-12-20T04:16:37;9.38;;;3.03;;
73814;SDS011;62145;55.648;37.602;2023-12-20T04:19:04;8.13;;;3.17;;
73814;SDS011;62145;55.648;37.602;2023-12-20T04:21:30;8.52;;;3.30;;
73814;SDS011;62145;55.648;37.602;2023-12-20T04:23:56;9.65;;;3.70;;
73814;SDS011;62145;55.648;37.602;2023-12-20T04:26:22;11.45;;;3.63;;
73814;SDS011;62145;55.648;37.602;2023-12-20T04:28:48;9.45;;;3.47;;
73814;SDS011;62145;55.648;37.602;2023-12-20T04:31:14;9.90;;;3.43;;
73814;SDS011;62145;55.648;37.602;2023-12-20T04:33:40;8.30;;;2.90;;
73814;SDS011;62145;55.648;37.602;2023-12-20T04:36:06;8.75;;;3.45;;
73814;SDS011;62145;55.648;37.602;2023-12-20T04:38:32;10.63;;;3.58;;
73814;SDS011;62145;55.648;37.602;2023-12-20T04:40:58;9.03;;;3.00;;
73814;SDS011;62145;55.648;37.602;2023-12-20T04:43:24;10.60;;;3.22;;
73814;SDS011;62145;55.648;37.602;2023-12-20T04:45:50;8.07;;;2.63;;
73814;SDS011;62145;55.648;37.602;2023-12-20T04:48:16;7.93;;;2.25;;
73814;SDS011;62145;55.648;37.602;2023-12-20T04:50:41;7.30;;;2.43;;
73814;SDS011;62145;55.648;37.602;2023-12-20T04:53:07;7.13;;;2.67;;
73814;SDS011;62145;55.648;37.602;2023-12-20T04:55:33;7.47;;;2.35;;
73814;SDS011;62145;55.648;37.602;2023-12-20T04:57:59;6.85;;;2.10;;
73814;SDS011;62145;55.648;37.602;2023-12-20T05:00:26;9.17;;;2.40;;
73814;SDS011;62145;55.648;37.602;2023-12-20T05:02:51;6.30;;;2.30;;
73814;SDS011;62145;55.648;37.602;2023-12-20T05:05:17;6.90;;;2.42;;
73814;SDS011;62145;55.648;37.602;2023-12-20T05:07:43;6.50;;;2.20;;
73814;SDS011;62145;55.648;37.602;2023-12-20T05:10:09;5.70;;;1.77;;
73814;SDS011;62145;55.648;37.602;2023-12-20T05:12:35;5.25;;;2.03;;
73814;SDS011;62145;55.648;37.602;2023-12-20T05:15:01;4.97;;;1.90;;
73814;SDS011;62145;55.648;37.602;2023-12-20T05:17:29;7.70;;;2.07;;
73814;SDS011;62145;55.648;37.602;2023-12-20T05:19:55;7.30;;;2.65;;
73814;SDS011;62145;55.648;37.602;2023-12-20T05:22:21;8.65;;;2.65;;
73814;SDS011;62145;55.648;37.602;2023-12-20T05:24:47;7.30;;;2.40;;
73814;SDS011;62145;55.648;37.602;2023-12-20T05:27:13;9.00;;;2.83;;
73814;SDS011;62145;55.648;37.602;2023-12-20T05:29:38;6.80;;;2.72;;
73814;SDS011;62145;55.648;37.602;2023-12-20T05:32:05;7.55;;;2.80;;
73814;SDS011;62145;55.648;37.602;2023-12-20T05:34:31;8.05;;;2.92;;
73814;SDS011;62145;55.648;37.602;2023-12-20T05:36:57;8.67;;;3.10;;
73814;SDS011;62145;55.648;37.602;2023-12-20T05:39:23;8.32;;;2.90;;
73814;SDS011;62145;55.648;37.602;2023-12-20T05:41:49;9.35;;;2.97;;
73814;SDS011;62145;55.648;37.602;2023-12-20T05:44:15;6.65;;;2.38;;
73814;SDS011;62145;55.648;37.602;2023-12-20T05:46:41;9.67;;;3.20;;
73814;SDS011;62145;55.648;37.602;2023-12-20T05:49:07;9.43;;;3.50;;
73814;SDS011;62145;55.648;37.602;2023-12-20T05:51:33;7.32;;;2.47;;
73814;SDS011;62145;55.648;37.602;2023-12-20T05:53:59;9.13;;;3.22;;
73814;SDS011;62145;55.648;37.602;2023-12-20T05:56:25;9.80;;;3.23;;
73814;SDS011;62145;55.648;37.602;2023-12-20T05:58:51;8.70;;;2.95;;
73814;SDS011;62145;55.648;37.602;2023-12-20T06:01:17;9.40;;;2.83;;
73814;SDS011;62145;55.648;37.602;2023-12-20T06:03:43;9.40;;;3.20;;
73814;SDS011;62145;55.648;37.602;2023-12-20T06:06:09;9.35;;;3.25;;
73814;SDS011;62145;55.648;37.602;2023-12-20T06:08:35;7.05;;;2.47;;
73814;SDS011;62145;55.648;37.602;2023-12-20T06:11:02;8.30;;;2.97;;
73814;SDS011;62145;55.648;37.602;2023-12-20T06:13:28;8.47;;;3.33;;
73814;SDS011;62145;55.648;37.602;2023-12-20T06:15:55;8.25;;;2.58;;
73814;SDS011;62145;55.648;37.602;2023-12-20T06:18:22;8.15;;;3.03;;
73814;SDS011;62145;55.648;37.602;2023-12-20T06:20:48;7.72;;;2.58;;
73814;SDS011;62145;55.648;37.602;2023-12-20T06:23:14;11.05;;;3.22;;
73814;SDS011;62145;55.648;37.602;2023-12-20T06:25:40;12.13;;;3.27;;
73814;SDS011;62145;55.648;37.602;2023-12-20T06:28:06;6.00;;;2.00;;
73814;SDS011;62145;55.648;37.602;2023-12-20T06:30:32;8.52;;;2.92;;
73814;SDS011;62145;55.648;37.602;2023-12-20T06:32:58;7.72;;;3.13;;
73814;SDS011;62145;55.648;37.602;2023-12-20T06:35:25;9.60;;;3.20;;
73814;SDS011;62145;55.648;37.602;2023-12-20T06:37:54;8.38;;;2.63;;
73814;SDS011;62145;55.648;37.602;2023-12-20T06:40:23;7.35;;;2.42;;
73814;SDS011;62145;55.648;37.602;2023-12-20T06:42:49;5.00;;;1.67;;
73814;SDS011;62145;55.648;37.602;2023-12-20T06:45:15;8.00;;;2.88;;
73814;SDS011;62145;55.648;37.602;2023-12-20T06:47:41;5.90;;;2.33;;
73814;SDS011;62145;55.648;37.602;2023-12-20T06:50:07;7.47;;;2.90;;
73814;SDS011;62145;55.648;37.602;2023-12-20T06:52:34;7.85;;;2.95;;
73814;SDS011;62145;55.648;37.602;2023-12-20T06:55:01;8.20;;;2.67;;
73814;SDS011;62145;55.648;37.602;2023-12-20T06:57:29;7.40;;;2.47;;
73814;SDS011;62145;55.648;37.602;2023-12-20T06:59:57;5.60;;;1.90;;
73814;SDS011;62145;55.648;37.602;2023-12-20T07:02:25;6.18;;;2.40;;
73814;SDS011;62145;55.648;37.602;2023-12-20T07:04:55;6.70;;;2.67;;
73814;SDS011;62145;55.648;37.602;2023-12-20T07:07:21;6.72;;;2.50;;
73814;SDS011;62145;55.648;37.602;2023-12-20T07:09:49;7.77;;;2.93;;
73814;SDS011;62145;55.648;37.602;2023-12-20T07:12:19;6.60;;;2.38;;
73814;SDS011;62145;55.648;37.602;2023-12-20T07:14:46;9.20;;;2.67;;
73814;SDS011;62145;55.648;37.602;2023-12-20T07:17:12;5.75;;;1.98;;
73814;SDS011;62145;55.648;37.602;2023-12-20T07:19:41;7.07;;;3.17;;
73814;SDS011;62145;55.648;37.602;2023-12-20T07:22:07;6.03;;;2.37;;
73814;SDS011;62145;55.648;37.602;2023-12-20T07:24:36;6.13;;;2.05;;
73814;SDS011;62145;55.648;37.602;2023-12-20T07:27:05;6.97;;;2.47;;
73814;SDS011;62145;55.648;37.602;2023-12-20T07:29:31;7.15;;;3.00;;
73814;SDS011;62145;55.648;37.602;2023-12-20T07:31:59;5.72;;;1.98;;
73814;SDS011;62145;55.648;37.602;2023-12-20T07:34:26;5.47;;;2.17;;
73814;SDS011;62145;55.648;37.602;2023-12-20T07:36:52;5.93;;;2.20;;
73814;SDS011;62145;55.648;37.602;2023-12-20T07:39:18;7.80;;;2.40;;
73814;SDS011;62145;55.648;37.602;2023-12-20T07:41:48;4.70;;;1.67;;
73814;SDS011;62145;55.648;37.602;2023-12-20T07:44:14;6.00;;;2.00;;
73814;SDS011;62145;55.648;37.602;2023-12-20T07:46:41;6.23;;;2.43;;
73814;SDS011;62145;55.648;37.602;2023-12-20T07:49:08;7.55;;;2.20;;
73814;SDS011;62145;55.648;37.602;2023-12-20T07:51:36;8.05;;;2.17;;
73814;SDS011;62145;55.648;37.602;2023-12-20T07:54:03;6.35;;;1.77;;
73814;SDS011;62145;55.648;37.602;2023-12-20T07:56:33;6.38;;;2.17;;
73814;SDS011;62145;55.648;37.602;2023-12-20T07:58:59;5.87;;;1.87;;
73814;SDS011;62145;55.648;37.602;2023-12-20T08:01:26;6.70;;;2.25;;
73814;SDS011;62145;55.648;37.602;2023-12-20T08:03:52;8.00;;;1.83;;
73814;SDS011;62145;55.648;37.602;2023-12-20T08:06:18;5.95;;;2.13;;
73814;SDS011;62145;55.648;37.602;2023-12-20T08:08:44;6.07;;;1.90;;
73814;SDS011;62145;55.648;37.602;2023-12-20T08:11:10;7.82;;;1.98;;
73814;SDS011;62145;55.648;37.602;2023-12-20T08:13:37;7.07;;;2.50;;
73814;SDS011;62145;55.648;37.602;2023-12-20T08:16:03;7.10;;;2.28;;
73814;SDS011;62145;55.648;37.602;2023-12-20T08:18:30;7.28;;;2.30;;
73814;SDS011;62145;55.648;37.602;2023-12-20T08:20:56;6.00;;;2.30;;
73814;SDS011;62145;55.648;37.602;2023-12-20T08:23:22;6.78;;;2.22;;
73814;SDS011;62145;55.648;37.602;2023-12-20T08:25:50;5.90;;;2.10;;
73814;SDS011;62145;55.648;37.602;2023-12-20T08:28:17;6.90;;;2.08;;
73814;SDS011;62145;55.648;37.602;2023-12-20T08:30:43;6.07;;;1.90;;
73814;SDS011;62145;55.648;37.602;2023-12-20T08:33:09;7.17;;;2.10;;
73814;SDS011;62145;55.648;37.602;2023-12-20T08:35:41;4.38;;;1.75;;
73814;SDS011;62145;55.648;37.602;2023-12-20T08:38:07;6.90;;;2.10;;
73814;SDS011;62145;55.648;37.602;2023-12-20T08:40:33;9.20;;;2.28;;
73814;SDS011;62145;55.648;37.602;2023-12-20T08:42:59;6.38;;;2.50;;
73814;SDS011;62145;55.648;37.602;2023-12-20T08:45:25;6.27;;;2.43;;
73814;SDS011;62145;55.648;37.602;2023-12-20T08:47:51;5.90;;;2.28;;
73814;SDS011;62145;55.648;37.602;2023-12-20T08:50:17;6.82;;;2.22;;
73814;SDS011;62145;55.648;37.602;2023-12-20T08:52:43;5.80;;;2.10;;
73814;SDS011;62145;55.648;37.602;2023-12-20T08:55:09;6.47;;;2.50;;
73814;SDS011;62145;55.648;37.602;2023-12-20T08:57:37;7.32;;;2.65;;
73814;SDS011;62145;55.648;37.602;2023-12-20T09:00:03;7.32;;;2.45;;
73814;SDS011;62145;55.648;37.602;2023-12-20T09:02:30;8.38;;;2.70;;
73814;SDS011;62145;55.648;37.602;2023-12-20T09:04:56;8.07;;;3.10;;
73814;SDS011;62145;55.648;37.602;2023-12-20T09:07:23;7.00;;;2.77;;
73814;SDS011;62145;55.648;37.602;2023-12-20T09:09:49;6.85;;;2.75;;
73814;SDS011;62145;55.648;37.602;2023-12-20T09:12:17;6.15;;;2.50;;
73814;SDS011;62145;55.648;37.602;2023-12-20T09:14:45;7.18;;;2.90;;
73814;SDS011;62145;55.648;37.602;2023-12-20T09:17:13;7.40;;;3.20;;
73814;SDS011;62145;55.648;37.602;2023-12-20T09:19:48;7.93;;;3.10;;
73814;SDS011;62145;55.648;37.602;2023-12-20T09:22:19;6.32;;;2.42;;
73814;SDS011;62145;55.648;37.602;2023-12-20T09:24:45;6.03;;;2.33;;
73814;SDS011;62145;55.648;37.602;2023-12-20T09:27:11;8.65;;;2.88;;
73814;SDS011;62145;55.648;37.602;2023-12-20T09:29:39;8.52;;;3.30;;
73814;SDS011;62145;55.648;37.602;2023-12-20T09:32:05;6.70;;;2.73;;
73814;SDS011;62145;55.648;37.602;2023-12-20T09:34:33;6.28;;;2.20;;
73814;SDS011;62145;55.648;37.602;2023-12-20T09:36:59;7.45;;;3.05;;
73814;SDS011;62145;55.648;37.602;2023-12-20T09:39:25;5.60;;;2.20;;
73814;SDS011;62145;55.648;37.602;2023-12-20T09:41:57;7.38;;;2.53;;
73814;SDS011;62145;55.648;37.602;2023-12-20T09:44:36;5.83;;;2.40;;
73814;SDS011;62145;55.648;37.602;2023-12-20T09:47:07;6.95;;;2.45;;
73814;SDS011;62145;55.648;37.602;2023-12-20T09:49:34;5.05;;;1.83;;
73814;SDS011;62145;55.648;37.602;2023-12-20T09:52:01;8.02;;;2.65;;
73814;SDS011;62145;55.648;37.602;2023-12-20T09:54:30;5.67;;;2.00;;
73814;SDS011;62145;55.648;37.602;2023-12-20T09:56:58;6.90;;;2.80;;
73814;SDS011;62145;55.648;37.602;2023-12-20T09:59:25;7.05;;;2.83;;
73814;SDS011;62145;55.648;37.602;2023-12-20T10:01:54;7.53;;;2.47;;
73814;SDS011;62145;55.648;37.602;2023-12-20T10:04:28;7.60;;;2.53;;
73814;SDS011;62145;55.648;37.602;2023-12-20T10:07:01;8.00;;;3.70;;
73814;SDS011;62145;55.648;37.602;2023-12-20T10:09:29;7.83;;;3.00;;
73814;SDS011;62145;55.648;37.602;2023-12-20T10:11:58;6.32;;;2.83;;
73814;SDS011;62145;55.648;37.602;2023-12-20T10:14:32;6.50;;;2.67;;
73814;SDS011;62145;55.648;37.602;2023-12-20T10:17:01;10.73;;;2.53;;
73814;SDS011;62145;55.648;37.602;2023-12-20T10:19:29;5.68;;;2.10;;
73814;SDS011;62145;55.648;37.602;2023-12-20T10:21:55;6.57;;;1.97;;
73814;SDS011;62145;55.648;37.602;2023-12-20T10:24:28;5.28;;;1.67;;
73814;SDS011;62145;55.648;37.602;2023-12-20T10:27:01;5.80;;;1.88;;
73814;SDS011;62145;55.648;37.602;2023-12-20T10:29:36;5.93;;;2.08;;
73814;SDS011;62145;55.648;37.602;2023-12-20T10:34:56;6.30;;;2.23;;
73814;SDS011;62145;55.648;37.602;2023-12-20T10:37:25;5.80;;;1.73;;
73814;SDS011;62145;55.648;37.602;2023-12-20T10:39:55;6.35;;;1.92;;
73814;SDS011;62145;55.648;37.602;2023-12-20T10:42:27;5.00;;;1.80;;
73814;SDS011;62145;55.648;37.602;2023-12-20T10:44:54;5.18;;;1.90;;
73814;SDS011;62145;55.648;37.602;2023-12-20T10:47:20;4.93;;;2.00;;
73814;SDS011;62145;55.648;37.602;2023-12-20T10:49:48;5.95;;;2.10;;
73814;SDS011;62145;55.648;37.602;2023-12-20T10:52:15;5.20;;;2.20;;
73814;SDS011;62145;55.648;37.602;2023-12-20T10:54:47;5.30;;;2.17;;
73814;SDS011;62145;55.648;37.602;2023-12-20T10:57:22;7.47;;;2.28;;
73814;SDS011;62145;55.648;37.602;2023-12-20T10:59:51;5.90;;;2.40;;
73814;SDS011;62145;55.648;37.602;2023-12-20T11:02:19;4.57;;;1.70;;
73814;SDS011;62145;55.648;37.602;2023-12-20T11:10:56;5.05;;;1.60;;
73814;SDS011;62145;55.648;37.602;2023-12-20T11:13:40;4.90;;;1.50;;
73814;SDS011;62145;55.648;37.602;2023-12-20T11:16:12;5.53;;;2.42;;
73814;SDS011;62145;55.648;37.602;2023-12-20T11:18:44;5.38;;;1.98;;
73814;SDS011;62145;55.648;37.602;2023-12-20T11:21:11;4.55;;;1.67;;
73814;SDS011;62145;55.648;37.602;2023-12-20T11:23:39;5.82;;;2.05;;
73814;SDS011;62145;55.648;37.602;2023-12-20T11:26:07;5.60;;;1.90;;
73814;SDS011;62145;55.648;37.602;2023-12-20T11:28:34;4.82;;;1.80;;
73814;SDS011;62145;55.648;37.602;2023-12-20T11:31:00;4.95;;;1.85;;
73814;SDS011;62145;55.648;37.602;2023-12-20T11:33:36;5.10;;;1.95;;
73814;SDS011;62145;55.648;37.602;2023-12-20T11:36:18;5.43;;;2.20;;
73814;SDS011;62145;55.648;37.602;2023-12-20T11:41:57;5.72;;;1.92;;
73814;SDS011;62145;55.648;37.602;2023-12-20T11:45:05;4.97;;;1.88;;
73814;SDS011;62145;55.648;37.602;2023-12-20T11:47:46;5.82;;;2.10;;
73814;SDS011;62145;55.648;37.602;2023-12-20T11:50:28;5.75;;;2.15;;
73814;SDS011;62145;55.648;37.602;2023-12-20T11:55:56;7.00;;;2.20;;
73814;SDS011;62145;55.648;37.602;2023-12-20T11:58:28;6.93;;;2.08;;
73814;SDS011;62145;55.648;37.602;2023-12-20T12:01:13;5.55;;;1.45;;
73814;SDS011;62145;55.648;37.602;2023-12-20T12:03:41;6.75;;;2.40;;
73814;SDS011;62145;55.648;37.602;2023-12-20T12:06:24;6.70;;;2.37;;
73814;SDS011;62145;55.648;37.602;2023-12-20T12:08:54;6.45;;;2.28;;
73814;SDS011;62145;55.648;37.602;2023-12-20T12:11:37;5.88;;;2.55;;
73814;SDS011;62145;55.648;37.602;2023-12-20T12:14:14;5.25;;;2.13;;
73814;SDS011;62145;55.648;37.602;2023-12-20T12:19:46;4.77;;;1.80;;
73814;SDS011;62145;55.648;37.602;2023-12-20T12:22:27;5.45;;;1.90;;
73814;SDS011;62145;55.648;37.602;2023-12-20T12:28:27;4.65;;;1.75;;
73814;SDS011;62145;55.648;37.602;2023-12-20T12:31:06;6.32;;;1.80;;
73814;SDS011;62145;55.648;37.602;2023-12-20T12:33:40;4.17;;;1.27;;
73814;SDS011;62145;55.648;37.602;2023-12-20T12:36:13;5.45;;;1.80;;
73814;SDS011;62145;55.648;37.602;2023-12-20T12:38:41;6.47;;;1.80;;
73814;SDS011;62145;55.648;37.602;2023-12-20T12:41:08;6.22;;;1.52;;
73814;SDS011;62145;55.648;37.602;2023-12-20T12:43:35;4.07;;;1.42;;
73814;SDS011;62145;55.648;37.602;2023-12-20T12:46:03;4.83;;;1.90;;
73814;SDS011;62145;55.648;37.602;2023-12-20T12:48:29;5.40;;;1.92;;
73814;SDS011;62145;55.648;37.602;2023-12-20T12:50:55;4.22;;;1.83;;
73814;SDS011;62145;55.648;37.602;2023-12-20T12:53:25;5.25;;;1.90;;
73814;SDS011;62145;55.648;37.602;2023-12-20T12:55:53;5.72;;;1.80;;
73814;SDS011;62145;55.648;37.602;2023-12-20T12:58:23;4.67;;;1.90;;
73814;SDS011;62145;55.648;37.602;2023-12-20T13:00:51;5.10;;;1.77;;
73814;SDS011;62145;55.648;37.602;2023-12-20T13:03:18;5.30;;;1.92;;
73814;SDS011;62145;55.648;37.602;2023-12-20T13:05:44;5.47;;;1.95;;
73814;SDS011;62145;55.648;37.602;2023-12-20T13:08:12;5.35;;;2.15;;
73814;SDS011;62145;55.648;37.602;2023-12-20T13:10:39;4.50;;;1.73;;
73814;SDS011;62145;55.648;37.602;2023-12-20T13:13:07;4.70;;;2.00;;
73814;SDS011;62145;55.648;37.602;2023-12-20T13:15:35;4.55;;;1.60;;
73814;SDS011;62145;55.648;37.602;2023-12-20T13:18:02;5.13;;;1.80;;
73814;SDS011;62145;55.648;37.602;2023-12-20T13:20:30;4.53;;;1.60;;
73814;SDS011;62145;55.648;37.602;2023-12-20T13:22:56;4.63;;;1.60;;
73814;SDS011;62145;55.648;37.602;2023-12-20T13:25:22;6.13;;;1.83;;
73814;SDS011;62145;55.648;37.602;2023-12-20T13:27:49;6.18;;;2.10;;
73814;SDS011;62145;55.648;37.602;2023-12-20T13:30:16;5.32;;;1.90;;
73814;SDS011;62145;55.648;37.602;2023-12-20T13:32:44;6.43;;;2.10;;
73814;SDS011;62145;55.648;37.602;2023-12-20T13:35:12;5.27;;;1.87;;
73814;SDS011;62145;55.648;37.602;2023-12-20T13:37:40;6.05;;;1.98;;
73814;SDS011;62145;55.648;37.602;2023-12-20T13:40:06;4.38;;;1.73;;
73814;SDS011;62145;55.648;37.602;2023-12-20T13:42:33;5.75;;;2.20;;
73814;SDS011;62145;55.648;37.602;2023-12-20T13:45:00;6.00;;;2.30;;
73814;SDS011;62145;55.648;37.602;2023-12-20T13:47:27;6.40;;;2.20;;
73814;SDS011;62145;55.648;37.602;2023-12-20T13:49:53;5.28;;;1.80;;
73814;SDS011;62145;55.648;37.602;2023-12-20T13:52:19;3.95;;;1.05;;
73814;SDS011;62145;55.648;37.602;2023-12-20T13:54:45;5.88;;;2.22;;
73814;SDS011;62145;55.648;37.602;2023-12-20T13:57:11;6.97;;;2.30;;
73814;SDS011;62145;55.648;37.602;2023-12-20T13:59:40;5.50;;;1.60;;
73814;SDS011;62145;55.648;37.602;2023-12-20T14:02:06;6.13;;;1.92;;
73814;SDS011;62145;55.648;37.602;2023-12-20T14:04:32;4.97;;;1.90;;
73814;SDS011;62145;55.648;37.602;2023-12-20T14:06:58;4.63;;;1.80;;
73814;SDS011;62145;55.648;37.602;2023-12-20T14:09:24;5.47;;;1.45;;
73814;SDS011;62145;55.648;37.602;2023-12-20T14:11:50;5.63;;;2.00;;
73814;SDS011;62145;55.648;37.602;2023-12-20T14:14:16;6.35;;;2.00;;
73814;SDS011;62145;55.648;37.602;2023-12-20T14:16:42;6.17;;;2.13;;
73814;SDS011;62145;55.648;37.602;2023-12-20T14:19:10;4.72;;;2.15;;
73814;SDS011;62145;55.648;37.602;2023-12-20T14:21:37;6.22;;;2.80;;
73814;SDS011;62145;55.648;37.602;2023-12-20T14:24:03;6.20;;;2.35;;
73814;SDS011;62145;55.648;37.602;2023-12-20T14:26:29;5.63;;;2.20;;
73814;SDS011;62145;55.648;37.602;2023-12-20T14:28:56;6.20;;;2.40;;
73814;SDS011;62145;55.648;37.602;2023-12-20T14:31:22;5.35;;;1.90;;
73814;SDS011;62145;55.648;37.602;2023-12-20T14:33:50;5.28;;;1.67;;
73814;SDS011;62145;55.648;37.602;2023-12-20T14:36:19;6.55;;;1.80;;
73814;SDS011;62145;55.648;37.602;2023-12-20T14:38:46;5.10;;;1.83;;
73814;SDS011;62145;55.648;37.602;2023-12-20T14:41:16;5.03;;;1.70;;
73814;SDS011;62145;55.648;37.602;2023-12-20T14:43:46;6.57;;;2.03;;
73814;SDS011;62145;55.648;37.602;2023-12-20T14:46:13;5.25;;;2.10;;
73814;SDS011;62145;55.648;37.602;2023-12-20T14:48:39;5.97;;;2.20;;
73814;SDS011;62145;55.648;37.602;2023-12-20T14:51:05;6.00;;;2.20;;
73814;SDS011;62145;55.648;37.602;2023-12-20T14:53:30;5.72;;;1.85;;
73814;SDS011;62145;55.648;37.602;2023-12-20T14:55:56;6.57;;;2.28;;
73814;SDS011;62145;55.648;37.602;2023-12-20T14:58:22;5.87;;;2.33;;
73814;SDS011;62145;55.648;37.602;2023-12-20T15:00:48;5.85;;;2.15;;